EJU186 LFLL-LFKB
Flight info
| Callsign | EJU186 |
|---|---|
| Flight time | 1h 19m |
| Altitude | 19000 |
| Route | ROMAM T43 BEPER/N0419F330 DCT RETNO DCT KOLON DCT NARTI UP991 NIRDO |
| Aircraft | A320/M-SDE2E3FGHIJ1RWXYZ/LB1 |
Departure
| Time | 2026-04-23 15:07 |
|---|---|
| Airport | Lyon Saint-Exupéry Airport (LFLL) |
Arrival
| Time | 2026-04-23 16:26 |
|---|---|
| Airport | Bastia-Poretta International airport (LFKB) |
| Time | Latitude | Longitude | Altitude | Speed | Heading |
|---|---|---|---|---|---|
| 2026-04-23 14:39 | 45.71594 | 5.08270 | 815 ft | 0 kts | 169° |
| 2026-04-23 14:59 | 45.71599 | 5.08268 | 811 ft | 3 kts | 169° |
| 2026-04-23 15:00 | 45.71616 | 5.08264 | 813 ft | 3 kts | 169° |
| 2026-04-23 15:00 | 45.71633 | 5.08259 | 813 ft | 3 kts | 169° |
| 2026-04-23 15:00 | 45.71650 | 5.08254 | 814 ft | 3 kts | 169° |
| 2026-04-23 15:00 | 45.71657 | 5.08253 | 814 ft | 3 kts | 170° |
| 2026-04-23 15:01 | 45.71674 | 5.08244 | 810 ft | 3 kts | 133° |
| 2026-04-23 15:01 | 45.71682 | 5.08227 | 807 ft | 0 kts | 103° |
| 2026-04-23 15:03 | 45.71680 | 5.08238 | 812 ft | 6 kts | 103° |
| 2026-04-23 15:03 | 45.71676 | 5.08315 | 814 ft | 7 kts | 88° |
| 2026-04-23 15:04 | 45.71681 | 5.08437 | 814 ft | 15 kts | 99° |
| 2026-04-23 15:04 | 45.71585 | 5.08499 | 812 ft | 18 kts | 159° |
| 2026-04-23 15:04 | 45.71448 | 5.08517 | 816 ft | 23 kts | 172° |
| 2026-04-23 15:04 | 45.71284 | 5.08536 | 820 ft | 24 kts | 176° |
| 2026-04-23 15:05 | 45.71160 | 5.08569 | 820 ft | 14 kts | 148° |
| 2026-04-23 15:05 | 45.71115 | 5.08670 | 822 ft | 11 kts | 105° |
| 2026-04-23 15:05 | 45.71097 | 5.08769 | 822 ft | 11 kts | 105° |
| 2026-04-23 15:05 | 45.71076 | 5.08915 | 822 ft | 16 kts | 88° |
| 2026-04-23 15:06 | 45.71135 | 5.09020 | 820 ft | 16 kts | 2° |
| 2026-04-23 15:06 | 45.71291 | 5.09003 | 818 ft | 41 kts | 353° |
| 2026-04-23 15:06 | 45.71824 | 5.08938 | 812 ft | 110 kts | 355° |
| 2026-04-23 15:06 | 45.72785 | 5.08827 | 797 ft | 164 kts | 356° |
| 2026-04-23 15:07 | 45.73968 | 5.08695 | 1379 ft | 167 kts | 355° |
| 2026-04-23 15:07 | 45.75121 | 5.08549 | 2177 ft | 167 kts | 355° |
| 2026-04-23 15:07 | 45.76283 | 5.08406 | 2907 ft | 168 kts | 356° |
| 2026-04-23 15:07 | 45.77458 | 5.08260 | 3652 ft | 169 kts | 356° |
| 2026-04-23 15:08 | 45.78643 | 5.08115 | 4223 ft | 176 kts | 356° |
| 2026-04-23 15:08 | 45.79922 | 5.07959 | 4648 ft | 192 kts | 356° |
| 2026-04-23 15:08 | 45.81312 | 5.07791 | 5062 ft | 208 kts | 357° |
| 2026-04-23 15:09 | 45.83801 | 5.09769 | 6048 ft | 231 kts | 73° |
| 2026-04-23 15:09 | 45.83823 | 5.12063 | 6718 ft | 239 kts | 111° |
| 2026-04-23 15:09 | 45.82787 | 5.13917 | 7504 ft | 245 kts | 148° |
| 2026-04-23 15:09 | 45.81228 | 5.14991 | 8354 ft | 252 kts | 156° |
| 2026-04-23 15:10 | 45.80145 | 5.15611 | 8906 ft | 254 kts | 157° |
| 2026-04-23 15:10 | 45.77915 | 5.16814 | 10092 ft | 258 kts | 158° |
| 2026-04-23 15:10 | 45.76226 | 5.17727 | 10920 ft | 260 kts | 157° |
| 2026-04-23 15:10 | 45.74549 | 5.18654 | 11711 ft | 263 kts | 156° |
| 2026-04-23 15:11 | 45.72831 | 5.19618 | 12517 ft | 267 kts | 159° |
| 2026-04-23 15:11 | 45.71007 | 5.20186 | 13283 ft | 274 kts | 173° |
| 2026-04-23 15:11 | 45.69039 | 5.20142 | 13756 ft | 292 kts | 180° |
| 2026-04-23 15:11 | 45.66955 | 5.20000 | 14149 ft | 309 kts | 180° |
| 2026-04-23 15:12 | 45.64748 | 5.19851 | 14488 ft | 326 kts | 180° |
| 2026-04-23 15:12 | 45.62435 | 5.19699 | 14844 ft | 340 kts | 180° |
| 2026-04-23 15:12 | 45.60009 | 5.19537 | 15427 ft | 346 kts | 180° |
| 2026-04-23 15:12 | 45.57597 | 5.19373 | 16125 ft | 348 kts | 180° |
| 2026-04-23 15:13 | 45.55203 | 5.19212 | 16812 ft | 350 kts | 180° |
| 2026-04-23 15:13 | 45.52756 | 5.19050 | 17503 ft | 353 kts | 180° |
| 2026-04-23 15:13 | 45.50293 | 5.18889 | 18195 ft | 355 kts | 180° |
| 2026-04-23 15:13 | 45.47816 | 5.18729 | 18820 ft | 358 kts | 180° |
| 2026-04-23 15:14 | 45.45316 | 5.18571 | 19384 ft | 361 kts | 180° |
| 2026-04-23 15:14 | 45.42793 | 5.18413 | 19936 ft | 364 kts | 180° |
| 2026-04-23 15:14 | 45.40254 | 5.18252 | 20490 ft | 368 kts | 180° |
| 2026-04-23 15:14 | 45.37684 | 5.18087 | 21032 ft | 371 kts | 180° |
| 2026-04-23 15:15 | 45.35096 | 5.17920 | 21563 ft | 374 kts | 180° |
| 2026-04-23 15:15 | 45.32486 | 5.17752 | 22081 ft | 377 kts | 180° |
| 2026-04-23 15:15 | 45.29857 | 5.17586 | 22588 ft | 380 kts | 180° |
| 2026-04-23 15:15 | 45.27202 | 5.17422 | 23080 ft | 384 kts | 180° |
| 2026-04-23 15:16 | 45.24515 | 5.17255 | 23577 ft | 388 kts | 180° |
| 2026-04-23 15:16 | 45.21809 | 5.17086 | 24004 ft | 391 kts | 180° |
| 2026-04-23 15:16 | 45.19078 | 5.16916 | 24378 ft | 395 kts | 181° |
| 2026-04-23 15:16 | 45.16321 | 5.16741 | 24740 ft | 399 kts | 181° |
| 2026-04-23 15:17 | 45.14477 | 5.16623 | 24978 ft | 402 kts | 181° |
| 2026-04-23 15:17 | 45.11668 | 5.16443 | 25177 ft | 405 kts | 181° |
| 2026-04-23 15:17 | 45.08900 | 5.16498 | 25219 ft | 389 kts | 174° |
| 2026-04-23 15:17 | 45.06241 | 5.16798 | 25222 ft | 381 kts | 174° |
| 2026-04-23 15:18 | 45.03590 | 5.17094 | 25218 ft | 383 kts | 174° |
| 2026-04-23 15:18 | 45.00937 | 5.17386 | 25220 ft | 384 kts | 174° |
| 2026-04-23 15:18 | 44.98265 | 5.17679 | 25219 ft | 386 kts | 174° |
| 2026-04-23 15:18 | 44.95588 | 5.17974 | 25221 ft | 387 kts | 174° |
| 2026-04-23 15:19 | 44.92898 | 5.18274 | 25218 ft | 388 kts | 175° |
| 2026-04-23 15:19 | 44.90204 | 5.18573 | 25221 ft | 389 kts | 175° |
| 2026-04-23 15:19 | 44.87502 | 5.18872 | 25220 ft | 389 kts | 175° |
| 2026-04-23 15:19 | 44.84801 | 5.19170 | 25220 ft | 390 kts | 175° |
| 2026-04-23 15:20 | 44.82097 | 5.19469 | 25220 ft | 391 kts | 175° |
| 2026-04-23 15:20 | 44.79381 | 5.19769 | 25220 ft | 392 kts | 175° |
| 2026-04-23 15:20 | 44.76698 | 5.20070 | 25219 ft | 392 kts | 175° |
| 2026-04-23 15:20 | 44.73976 | 5.20376 | 25223 ft | 394 kts | 175° |
| 2026-04-23 15:21 | 44.71235 | 5.20682 | 25221 ft | 395 kts | 176° |
| 2026-04-23 15:21 | 44.68499 | 5.21027 | 25224 ft | 396 kts | 171° |
| 2026-04-23 15:21 | 44.65814 | 5.21959 | 25222 ft | 397 kts | 159° |
| 2026-04-23 15:21 | 44.63330 | 5.23622 | 25221 ft | 397 kts | 147° |
| 2026-04-23 15:22 | 44.61119 | 5.25938 | 25223 ft | 396 kts | 136° |
| 2026-04-23 15:22 | 44.59235 | 5.28754 | 25221 ft | 395 kts | 130° |
| 2026-04-23 15:22 | 44.57421 | 5.31652 | 25221 ft | 395 kts | 130° |
| 2026-04-23 15:22 | 44.55605 | 5.34547 | 25220 ft | 395 kts | 130° |
| 2026-04-23 15:23 | 44.53798 | 5.37425 | 25221 ft | 394 kts | 130° |
| 2026-04-23 15:23 | 44.51987 | 5.40301 | 25217 ft | 394 kts | 130° |
| 2026-04-23 15:23 | 44.50172 | 5.43174 | 25217 ft | 393 kts | 130° |
| 2026-04-23 15:23 | 44.48360 | 5.46030 | 25216 ft | 392 kts | 130° |
| 2026-04-23 15:24 | 44.46545 | 5.48884 | 25213 ft | 392 kts | 130° |
| 2026-04-23 15:24 | 44.44736 | 5.51732 | 25213 ft | 392 kts | 130° |
| 2026-04-23 15:24 | 44.42949 | 5.54550 | 25212 ft | 392 kts | 130° |
| 2026-04-23 15:24 | 44.41142 | 5.57396 | 25210 ft | 391 kts | 130° |
| 2026-04-23 15:25 | 44.39319 | 5.60270 | 25210 ft | 391 kts | 130° |
| 2026-04-23 15:25 | 44.37583 | 5.63207 | 25206 ft | 389 kts | 123° |
| 2026-04-23 15:25 | 44.36067 | 5.66331 | 25207 ft | 389 kts | 122° |
| 2026-04-23 15:25 | 44.34574 | 5.69419 | 25201 ft | 388 kts | 122° |
| 2026-04-23 15:26 | 44.33062 | 5.72540 | 25198 ft | 388 kts | 122° |
| 2026-04-23 15:26 | 44.31548 | 5.75660 | 25199 ft | 387 kts | 123° |
| 2026-04-23 15:26 | 44.30036 | 5.78767 | 25199 ft | 387 kts | 123° |
| 2026-04-23 15:26 | 44.28525 | 5.81868 | 25198 ft | 387 kts | 123° |
| 2026-04-23 15:27 | 44.27016 | 5.84964 | 25195 ft | 386 kts | 123° |
| 2026-04-23 15:27 | 44.25504 | 5.88064 | 25197 ft | 386 kts | 123° |
| 2026-04-23 15:27 | 44.23998 | 5.91149 | 25195 ft | 385 kts | 123° |
| 2026-04-23 15:27 | 44.22491 | 5.94233 | 25191 ft | 385 kts | 123° |
| 2026-04-23 15:28 | 44.20982 | 5.97319 | 25193 ft | 385 kts | 123° |
| 2026-04-23 15:28 | 44.19480 | 6.00394 | 25196 ft | 384 kts | 122° |
| 2026-04-23 15:28 | 44.17973 | 6.03470 | 25191 ft | 384 kts | 123° |
| 2026-04-23 15:28 | 44.16466 | 6.06533 | 25193 ft | 383 kts | 123° |
| 2026-04-23 15:29 | 44.14966 | 6.09584 | 25194 ft | 382 kts | 123° |
| 2026-04-23 15:29 | 44.13467 | 6.12636 | 25193 ft | 381 kts | 123° |
| 2026-04-23 15:29 | 44.11969 | 6.15678 | 25197 ft | 380 kts | 123° |
| 2026-04-23 15:29 | 44.10475 | 6.18707 | 25196 ft | 380 kts | 123° |
| 2026-04-23 15:30 | 44.08982 | 6.21734 | 25196 ft | 378 kts | 123° |
| 2026-04-23 15:30 | 44.07494 | 6.24750 | 25193 ft | 378 kts | 123° |
| 2026-04-23 15:30 | 44.06007 | 6.27760 | 25197 ft | 377 kts | 123° |
| 2026-04-23 15:30 | 44.04522 | 6.30758 | 25194 ft | 376 kts | 123° |
| 2026-04-23 15:31 | 44.03041 | 6.33746 | 25195 ft | 375 kts | 123° |
| 2026-04-23 15:31 | 44.01559 | 6.36736 | 25196 ft | 375 kts | 123° |
| 2026-04-23 15:31 | 44.00082 | 6.39716 | 25193 ft | 375 kts | 123° |
| 2026-04-23 15:31 | 43.98600 | 6.42699 | 25195 ft | 375 kts | 123° |
| 2026-04-23 15:32 | 43.97139 | 6.45640 | 25195 ft | 375 kts | 123° |
| 2026-04-23 15:32 | 43.95657 | 6.48617 | 25196 ft | 375 kts | 123° |
| 2026-04-23 15:32 | 43.94173 | 6.51595 | 25196 ft | 375 kts | 123° |
| 2026-04-23 15:32 | 43.92687 | 6.54572 | 25195 ft | 375 kts | 123° |
| 2026-04-23 15:33 | 43.91204 | 6.57537 | 25195 ft | 375 kts | 123° |
| 2026-04-23 15:33 | 43.89716 | 6.60512 | 25198 ft | 375 kts | 123° |
| 2026-04-23 15:33 | 43.88233 | 6.63477 | 25197 ft | 375 kts | 123° |
| 2026-04-23 15:33 | 43.86746 | 6.66447 | 25193 ft | 375 kts | 123° |
| 2026-04-23 15:34 | 43.85257 | 6.69411 | 25195 ft | 374 kts | 123° |
| 2026-04-23 15:34 | 43.83770 | 6.72371 | 25198 ft | 374 kts | 124° |
| 2026-04-23 15:34 | 43.82286 | 6.75325 | 25204 ft | 374 kts | 123° |
| 2026-04-23 15:34 | 43.80802 | 6.78279 | 25205 ft | 374 kts | 123° |
| 2026-04-23 15:35 | 43.79317 | 6.81226 | 25205 ft | 373 kts | 123° |
| 2026-04-23 15:35 | 43.77828 | 6.84176 | 25207 ft | 373 kts | 123° |
| 2026-04-23 15:35 | 43.76344 | 6.87115 | 25210 ft | 373 kts | 123° |
| 2026-04-23 15:35 | 43.74858 | 6.90059 | 25212 ft | 373 kts | 123° |
| 2026-04-23 15:36 | 43.73392 | 6.92966 | 25211 ft | 373 kts | 123° |
| 2026-04-23 15:36 | 43.71845 | 6.95911 | 25215 ft | 374 kts | 129° |
| 2026-04-23 15:36 | 43.70176 | 6.98593 | 25218 ft | 374 kts | 129° |
| 2026-04-23 15:36 | 43.68478 | 7.01315 | 25218 ft | 374 kts | 129° |
| 2026-04-23 15:37 | 43.66781 | 7.04035 | 25217 ft | 374 kts | 129° |
| 2026-04-23 15:37 | 43.65076 | 7.06764 | 25219 ft | 375 kts | 129° |
| 2026-04-23 15:37 | 43.63373 | 7.09490 | 25221 ft | 375 kts | 129° |
| 2026-04-23 15:37 | 43.61670 | 7.12212 | 25221 ft | 375 kts | 129° |
| 2026-04-23 15:38 | 43.59961 | 7.14937 | 25221 ft | 375 kts | 129° |
| 2026-04-23 15:38 | 43.58256 | 7.17655 | 25217 ft | 375 kts | 129° |
| 2026-04-23 15:38 | 43.56555 | 7.20371 | 25219 ft | 375 kts | 129° |
| 2026-04-23 15:38 | 43.54981 | 7.23226 | 25221 ft | 373 kts | 120° |
| 2026-04-23 15:39 | 43.53799 | 7.26401 | 25219 ft | 372 kts | 112° |
| 2026-04-23 15:39 | 43.52745 | 7.29655 | 25219 ft | 372 kts | 113° |
| 2026-04-23 15:39 | 43.51680 | 7.32908 | 25218 ft | 372 kts | 113° |
| 2026-04-23 15:39 | 43.50612 | 7.36150 | 25220 ft | 372 kts | 113° |
| 2026-04-23 15:40 | 43.49541 | 7.39387 | 25220 ft | 371 kts | 113° |
| 2026-04-23 15:40 | 43.48467 | 7.42624 | 25219 ft | 371 kts | 113° |
| 2026-04-23 15:40 | 43.47395 | 7.45853 | 25217 ft | 371 kts | 113° |
| 2026-04-23 15:40 | 43.46323 | 7.49082 | 25216 ft | 371 kts | 113° |
| 2026-04-23 15:41 | 43.45253 | 7.52316 | 25216 ft | 370 kts | 113° |
| 2026-04-23 15:41 | 43.44185 | 7.55536 | 25216 ft | 370 kts | 113° |
| 2026-04-23 15:41 | 43.43118 | 7.58753 | 25214 ft | 370 kts | 113° |
| 2026-04-23 15:41 | 43.42050 | 7.61970 | 25216 ft | 370 kts | 113° |
| 2026-04-23 15:42 | 43.40980 | 7.65189 | 25216 ft | 369 kts | 113° |
| 2026-04-23 15:42 | 43.39911 | 7.68400 | 25215 ft | 369 kts | 113° |
| 2026-04-23 15:42 | 43.38844 | 7.71604 | 25214 ft | 369 kts | 113° |
| 2026-04-23 15:42 | 43.37775 | 7.74814 | 25213 ft | 369 kts | 113° |
| 2026-04-23 15:43 | 43.36722 | 7.77966 | 25215 ft | 368 kts | 113° |
| 2026-04-23 15:43 | 43.35652 | 7.81164 | 25218 ft | 368 kts | 113° |
| 2026-04-23 15:43 | 43.34580 | 7.84361 | 25219 ft | 368 kts | 113° |
| 2026-04-23 15:43 | 43.33511 | 7.87552 | 25216 ft | 368 kts | 113° |
| 2026-04-23 15:44 | 43.32444 | 7.90734 | 25215 ft | 367 kts | 113° |
| 2026-04-23 15:44 | 43.31374 | 7.93919 | 25216 ft | 367 kts | 113° |
| 2026-04-23 15:44 | 43.30303 | 7.97102 | 25215 ft | 367 kts | 113° |
| 2026-04-23 15:44 | 43.29232 | 8.00271 | 25216 ft | 367 kts | 113° |
| 2026-04-23 15:45 | 43.28156 | 8.03450 | 25219 ft | 366 kts | 113° |
| 2026-04-23 15:45 | 43.27086 | 8.06618 | 25217 ft | 366 kts | 113° |
| 2026-04-23 15:45 | 43.26014 | 8.09793 | 25219 ft | 366 kts | 113° |
| 2026-04-23 15:45 | 43.24943 | 8.12964 | 25220 ft | 366 kts | 113° |
| 2026-04-23 15:46 | 43.23871 | 8.16133 | 25219 ft | 366 kts | 113° |
| 2026-04-23 15:46 | 43.22799 | 8.19299 | 25217 ft | 366 kts | 113° |
| 2026-04-23 15:46 | 43.21722 | 8.22467 | 25218 ft | 366 kts | 113° |
| 2026-04-23 15:46 | 43.20646 | 8.25622 | 25218 ft | 366 kts | 113° |
| 2026-04-23 15:47 | 43.19568 | 8.28787 | 25186 ft | 365 kts | 113° |
| 2026-04-23 15:47 | 43.18507 | 8.31900 | 24948 ft | 356 kts | 113° |
| 2026-04-23 15:47 | 43.17468 | 8.34941 | 24708 ft | 348 kts | 113° |
| 2026-04-23 15:47 | 43.16440 | 8.37946 | 24478 ft | 348 kts | 113° |
| 2026-04-23 15:48 | 43.15416 | 8.40943 | 24240 ft | 347 kts | 113° |
| 2026-04-23 15:48 | 43.14533 | 8.43997 | 24012 ft | 345 kts | 104° |
| 2026-04-23 15:48 | 43.14033 | 8.47201 | 23741 ft | 343 kts | 99° |
| 2026-04-23 15:48 | 43.13597 | 8.50404 | 23322 ft | 341 kts | 99° |
| 2026-04-23 15:49 | 43.13156 | 8.53595 | 22927 ft | 340 kts | 99° |
| 2026-04-23 15:49 | 43.12715 | 8.56754 | 22542 ft | 338 kts | 99° |
| 2026-04-23 15:49 | 43.12271 | 8.59911 | 22151 ft | 336 kts | 99° |
| 2026-04-23 15:49 | 43.11830 | 8.63039 | 21760 ft | 334 kts | 99° |
| 2026-04-23 15:50 | 43.11396 | 8.66113 | 21376 ft | 333 kts | 99° |
| 2026-04-23 15:50 | 43.10953 | 8.69253 | 20989 ft | 331 kts | 98° |
| 2026-04-23 15:50 | 43.10522 | 8.72330 | 20609 ft | 329 kts | 98° |
| 2026-04-23 15:50 | 43.10090 | 8.75401 | 20227 ft | 328 kts | 98° |
| 2026-04-23 15:51 | 43.09658 | 8.78455 | 19845 ft | 326 kts | 98° |
| 2026-04-23 15:51 | 43.09232 | 8.81460 | 19474 ft | 325 kts | 98° |
| 2026-04-23 15:51 | 43.08802 | 8.84485 | 19100 ft | 323 kts | 98° |
| 2026-04-23 15:51 | 43.08373 | 8.87498 | 18723 ft | 322 kts | 98° |
| 2026-04-23 15:52 | 43.07947 | 8.90499 | 18333 ft | 321 kts | 98° |
| 2026-04-23 15:52 | 43.07521 | 8.93492 | 17943 ft | 319 kts | 98° |
| 2026-04-23 15:52 | 43.07094 | 8.96458 | 17581 ft | 317 kts | 98° |
| 2026-04-23 15:52 | 43.06671 | 8.99399 | 17214 ft | 315 kts | 98° |
| 2026-04-23 15:53 | 43.06248 | 9.02335 | 16846 ft | 313 kts | 98° |
| 2026-04-23 15:53 | 43.05720 | 9.05222 | 16491 ft | 314 kts | 108° |
| 2026-04-23 15:53 | 43.04686 | 9.07860 | 16116 ft | 318 kts | 123° |
| 2026-04-23 15:53 | 43.03155 | 9.10057 | 15750 ft | 322 kts | 139° |
| 2026-04-23 15:54 | 43.01265 | 9.11725 | 15365 ft | 324 kts | 146° |
| 2026-04-23 15:54 | 42.99333 | 9.13300 | 14981 ft | 323 kts | 146° |
| 2026-04-23 15:54 | 42.97402 | 9.14877 | 14610 ft | 323 kts | 146° |
| 2026-04-23 15:54 | 42.95477 | 9.16454 | 14224 ft | 323 kts | 146° |
| 2026-04-23 15:55 | 42.93548 | 9.18034 | 13840 ft | 323 kts | 146° |
| 2026-04-23 15:55 | 42.91629 | 9.19607 | 13447 ft | 322 kts | 146° |
| 2026-04-23 15:55 | 42.89712 | 9.21175 | 13079 ft | 320 kts | 146° |
| 2026-04-23 15:55 | 42.87812 | 9.22731 | 12703 ft | 318 kts | 146° |
| 2026-04-23 15:56 | 42.85949 | 9.24255 | 12335 ft | 316 kts | 146° |
| 2026-04-23 15:56 | 42.84070 | 9.25790 | 11976 ft | 314 kts | 146° |
| 2026-04-23 15:56 | 42.82204 | 9.27310 | 11619 ft | 312 kts | 146° |
| 2026-04-23 15:56 | 42.80347 | 9.28818 | 11258 ft | 310 kts | 146° |
| 2026-04-23 15:57 | 42.78501 | 9.30317 | 10906 ft | 308 kts | 146° |
| 2026-04-23 15:57 | 42.77428 | 9.31190 | 10692 ft | 307 kts | 146° |
| 2026-04-23 15:58 | 42.75992 | 9.32357 | 10410 ft | 305 kts | 145° |
| 2026-04-23 15:58 | 42.74177 | 9.33833 | 10076 ft | 303 kts | 145° |
| 2026-04-23 15:58 | 42.72390 | 9.35286 | 9869 ft | 295 kts | 145° |
| 2026-04-23 15:59 | 42.70644 | 9.36703 | 9463 ft | 289 kts | 145° |
| 2026-04-23 15:59 | 42.68932 | 9.38092 | 9034 ft | 283 kts | 146° |
| 2026-04-23 15:59 | 42.67238 | 9.39469 | 8692 ft | 284 kts | 145° |
| 2026-04-23 15:59 | 42.65553 | 9.40839 | 8366 ft | 282 kts | 145° |
| 2026-04-23 16:00 | 42.63893 | 9.42189 | 8058 ft | 281 kts | 145° |
| 2026-04-23 16:00 | 42.62220 | 9.43547 | 7724 ft | 279 kts | 146° |
| 2026-04-23 16:00 | 42.60556 | 9.44895 | 7404 ft | 278 kts | 146° |
| 2026-04-23 16:00 | 42.58901 | 9.46234 | 7074 ft | 276 kts | 146° |
| 2026-04-23 16:01 | 42.57259 | 9.47557 | 6767 ft | 274 kts | 146° |
| 2026-04-23 16:01 | 42.55616 | 9.48861 | 6441 ft | 273 kts | 147° |
| 2026-04-23 16:01 | 42.53977 | 9.50139 | 6025 ft | 272 kts | 147° |
| 2026-04-23 16:01 | 42.52355 | 9.51395 | 5640 ft | 268 kts | 148° |
| 2026-04-23 16:02 | 42.50737 | 9.52651 | 5318 ft | 268 kts | 148° |
| 2026-04-23 16:02 | 42.49126 | 9.53899 | 5008 ft | 266 kts | 148° |
| 2026-04-23 16:02 | 42.47521 | 9.55145 | 4685 ft | 265 kts | 148° |
| 2026-04-23 16:02 | 42.45928 | 9.56384 | 4382 ft | 264 kts | 148° |
| 2026-04-23 16:03 | 42.44361 | 9.57601 | 4202 ft | 250 kts | 148° |
| 2026-04-23 16:03 | 42.42920 | 9.58706 | 4116 ft | 227 kts | 148° |
| 2026-04-23 16:03 | 42.41593 | 9.59712 | 4030 ft | 210 kts | 148° |
| 2026-04-23 16:03 | 42.40367 | 9.60637 | 3956 ft | 192 kts | 147° |
| 2026-04-23 16:04 | 42.39253 | 9.61476 | 3864 ft | 176 kts | 147° |
| 2026-04-23 16:04 | 42.38158 | 9.62258 | 3780 ft | 181 kts | 156° |
| 2026-04-23 16:04 | 42.36900 | 9.62402 | 3668 ft | 185 kts | 189° |
| 2026-04-23 16:04 | 42.35762 | 9.61644 | 3589 ft | 190 kts | 221° |
| 2026-04-23 16:05 | 42.35221 | 9.60698 | 3517 ft | 189 kts | 244° |
| 2026-04-23 16:05 | 42.35032 | 9.58458 | 3372 ft | 177 kts | 288° |
| 2026-04-23 16:05 | 42.35579 | 9.57079 | 3268 ft | 159 kts | 317° |
| 2026-04-23 16:05 | 42.36415 | 9.56270 | 3224 ft | 144 kts | 342° |
| 2026-04-23 16:06 | 42.37361 | 9.55858 | 3143 ft | 143 kts | 347° |
| 2026-04-23 16:06 | 42.38315 | 9.55460 | 3056 ft | 143 kts | 347° |
| 2026-04-23 16:06 | 42.39268 | 9.55064 | 2986 ft | 144 kts | 347° |
| 2026-04-23 16:06 | 42.40221 | 9.54666 | 2869 ft | 143 kts | 346° |
| 2026-04-23 16:07 | 42.41163 | 9.54273 | 2719 ft | 142 kts | 346° |
| 2026-04-23 16:07 | 42.42112 | 9.53877 | 2532 ft | 142 kts | 345° |
| 2026-04-23 16:07 | 42.43068 | 9.53478 | 2347 ft | 143 kts | 346° |
| 2026-04-23 16:07 | 42.44009 | 9.53085 | 2152 ft | 142 kts | 345° |
| 2026-04-23 16:08 | 42.44952 | 9.52691 | 1959 ft | 141 kts | 343° |
| 2026-04-23 16:08 | 42.45892 | 9.52298 | 1769 ft | 141 kts | 344° |
| 2026-04-23 16:08 | 42.46831 | 9.51906 | 1581 ft | 141 kts | 343° |
| 2026-04-23 16:08 | 42.47766 | 9.51515 | 1382 ft | 141 kts | 344° |
| 2026-04-23 16:09 | 42.48700 | 9.51125 | 1194 ft | 141 kts | 343° |
| 2026-04-23 16:09 | 42.49631 | 9.50735 | 998 ft | 140 kts | 343° |
| 2026-04-23 16:09 | 42.50560 | 9.50342 | 799 ft | 140 kts | 344° |
| 2026-04-23 16:09 | 42.51481 | 9.49950 | 630 ft | 138 kts | 343° |
| 2026-04-23 16:10 | 42.52408 | 9.49567 | 416 ft | 140 kts | 343° |
| 2026-04-23 16:10 | 42.53327 | 9.49193 | 233 ft | 138 kts | 342° |
| 2026-04-23 16:10 | 42.54232 | 9.48807 | 62 ft | 138 kts | 343° |
| 2026-04-23 16:10 | 42.55077 | 9.48428 | 32 ft | 111 kts | 339° |
| 2026-04-23 16:11 | 42.55800 | 9.48140 | 30 ft | 130 kts | 343° |
| 2026-04-23 16:11 | 42.56762 | 9.47739 | 630 ft | 142 kts | 342° |
| 2026-04-23 16:11 | 42.57710 | 9.47371 | 1379 ft | 146 kts | 357° |
| 2026-04-23 16:11 | 42.58624 | 9.47974 | 1922 ft | 155 kts | 59° |
| 2026-04-23 16:12 | 42.59017 | 9.49306 | 2650 ft | 150 kts | 64° |
| 2026-04-23 16:12 | 42.59778 | 9.50173 | 3319 ft | 152 kts | 9° |
| 2026-04-23 16:12 | 42.60800 | 9.49767 | 3852 ft | 166 kts | 320° |
| 2026-04-23 16:12 | 42.61659 | 9.48606 | 4242 ft | 182 kts | 327° |
| 2026-04-23 16:13 | 42.62871 | 9.48137 | 4683 ft | 188 kts | 3° |
| 2026-04-23 16:13 | 42.65177 | 9.48468 | 5196 ft | 218 kts | 11° |
| 2026-04-23 16:13 | 42.66684 | 9.48786 | 5207 ft | 219 kts | 11° |
| 2026-04-23 16:14 | 42.68190 | 9.49094 | 5206 ft | 220 kts | 11° |
| 2026-04-23 16:14 | 42.69690 | 9.49466 | 5200 ft | 217 kts | 22° |
| 2026-04-23 16:14 | 42.70978 | 9.50484 | 5209 ft | 215 kts | 44° |
| 2026-04-23 16:14 | 42.71881 | 9.52078 | 5210 ft | 213 kts | 64° |
| 2026-04-23 16:15 | 42.72282 | 9.54012 | 5208 ft | 214 kts | 85° |
| 2026-04-23 16:15 | 42.72113 | 9.56017 | 5220 ft | 216 kts | 107° |
| 2026-04-23 16:15 | 42.71384 | 9.57807 | 5212 ft | 220 kts | 129° |
| 2026-04-23 16:15 | 42.70179 | 9.59094 | 5209 ft | 225 kts | 152° |
| 2026-04-23 16:16 | 42.68656 | 9.59625 | 5212 ft | 229 kts | 176° |
| 2026-04-23 16:16 | 42.67081 | 9.59254 | 5216 ft | 233 kts | 201° |
| 2026-04-23 16:16 | 42.65734 | 9.58027 | 5213 ft | 236 kts | 222° |
| 2026-04-23 16:16 | 42.64532 | 9.56515 | 5210 ft | 235 kts | 221° |
| 2026-04-23 16:17 | 42.63329 | 9.55005 | 5212 ft | 236 kts | 221° |
| 2026-04-23 16:17 | 42.62129 | 9.53497 | 5213 ft | 236 kts | 221° |
| 2026-04-23 16:17 | 42.60926 | 9.51985 | 5211 ft | 235 kts | 221° |
| 2026-04-23 16:17 | 42.59727 | 9.50472 | 5211 ft | 235 kts | 222° |
| 2026-04-23 16:18 | 42.58434 | 9.49148 | 5214 ft | 233 kts | 202° |
| 2026-04-23 16:18 | 42.56902 | 9.48642 | 5090 ft | 229 kts | 177° |
| 2026-04-23 16:18 | 42.55369 | 9.49050 | 4830 ft | 224 kts | 153° |
| 2026-04-23 16:18 | 42.54032 | 9.50066 | 4566 ft | 217 kts | 147° |
| 2026-04-23 16:19 | 42.52747 | 9.51076 | 4312 ft | 210 kts | 147° |
| 2026-04-23 16:19 | 42.51502 | 9.52046 | 4059 ft | 206 kts | 147° |
| 2026-04-23 16:19 | 42.50251 | 9.53020 | 3815 ft | 209 kts | 148° |
| 2026-04-23 16:19 | 42.48987 | 9.54002 | 3557 ft | 209 kts | 147° |
| 2026-04-23 16:20 | 42.47720 | 9.54985 | 3310 ft | 209 kts | 147° |
| 2026-04-23 16:20 | 42.46459 | 9.55966 | 3054 ft | 210 kts | 147° |
| 2026-04-23 16:20 | 42.45195 | 9.56951 | 2799 ft | 210 kts | 148° |
| 2026-04-23 16:20 | 42.43927 | 9.57936 | 2547 ft | 210 kts | 148° |
| 2026-04-23 16:21 | 42.42672 | 9.58892 | 2412 ft | 203 kts | 150° |
| 2026-04-23 16:21 | 42.41347 | 9.59290 | 2415 ft | 191 kts | 187° |
| 2026-04-23 16:21 | 42.40236 | 9.58534 | 2415 ft | 176 kts | 229° |
| 2026-04-23 16:21 | 42.39696 | 9.57084 | 2406 ft | 171 kts | 266° |
| 2026-04-23 16:22 | 42.39901 | 9.55528 | 2405 ft | 166 kts | 304° |
| 2026-04-23 16:22 | 42.40720 | 9.54478 | 2406 ft | 162 kts | 340° |
| 2026-04-23 16:22 | 42.41787 | 9.54012 | 2431 ft | 161 kts | 345° |
| 2026-04-23 16:22 | 42.42860 | 9.53566 | 2347 ft | 162 kts | 346° |
| 2026-04-23 16:23 | 42.43925 | 9.53121 | 2175 ft | 158 kts | 345° |
| 2026-04-23 16:23 | 42.44925 | 9.52702 | 1982 ft | 144 kts | 344° |
| 2026-04-23 16:23 | 42.45865 | 9.52310 | 1791 ft | 141 kts | 344° |
| 2026-04-23 16:23 | 42.46728 | 9.51948 | 1620 ft | 140 kts | 344° |
| 2026-04-23 16:24 | 42.47598 | 9.51581 | 1447 ft | 141 kts | 342° |
| 2026-04-23 16:24 | 42.48528 | 9.51160 | 1213 ft | 140 kts | 343° |
| 2026-04-23 16:25 | 42.49455 | 9.50771 | 1007 ft | 140 kts | 344° |
| 2026-04-23 16:25 | 42.50392 | 9.50413 | 815 ft | 140 kts | 345° |
| 2026-04-23 16:25 | 42.51319 | 9.50047 | 633 ft | 138 kts | 342° |
| 2026-04-23 16:25 | 42.52240 | 9.49646 | 436 ft | 140 kts | 343° |
| 2026-04-23 16:26 | 42.53145 | 9.49262 | 265 ft | 138 kts | 342° |
| 2026-04-23 16:26 | 42.54072 | 9.48876 | 93 ft | 138 kts | 342° |
| 2026-04-23 16:26 | 42.54945 | 9.48508 | 32 ft | 114 kts | 343° |
| 2026-04-23 16:26 | 42.55415 | 9.48313 | 29 ft | 34 kts | 343° |